Time;durP1;ratioP1;P1;durP2;ratioP2;P2;SDS_P1;SDS_P2;PMS_P1;PMS_P2;Temp;Humidity;BMP_temperature;BMP_pressure;BME280_temperature;BME280_humidity;BME280_pressure;Samples;Min_cycle;Max_cycle;Signal;HPM_P1;HPM_P2
2023/01/06 00:01:57;;;;;;;5.38;3.17;;;;;;;9.31;100.00;101904.47;5248633;28;20017;-67
2023/01/06 00:04:28;;;;;;;4.40;3.00;;;;;;;9.30;100.00;101908.22;5248958;28;20060;-67
2023/01/06 00:06:58;;;;;;;5.82;2.40;;;;;;;9.34;100.00;101897.81;5248821;28;20056;-68
2023/01/06 00:09:28;;;;;;;3.00;2.80;;;;;;;9.32;100.00;101895.34;5248597;28;20048;-67
2023/01/06 00:11:59;;;;;;;2.83;2.60;;;;;;;9.11;100.00;101861.56;5248322;28;20013;-67
2023/01/06 00:14:29;;;;;;;15.15;4.50;;;;;;;9.32;100.00;101886.44;5248630;28;20024;-67
2023/01/06 00:17:00;;;;;;;3.33;3.08;;;;;;;9.28;100.00;101888.75;5248508;28;20029;-67
2023/01/06 00:19:30;;;;;;;2.88;2.67;;;;;;;9.30;100.00;101881.25;5249004;28;20024;-67
2023/01/06 00:22:00;;;;;;;3.08;2.70;;;;;;;9.29;100.00;101868.81;5247846;28;20017;-67
2023/01/06 00:24:32;;;;;;;3.30;3.17;;;;;;;9.19;100.00;101846.16;5248369;28;20494;-67
2023/01/06 00:27:02;;;;;;;3.20;3.00;;;;;;;9.33;100.00;101872.72;5248789;28;20377;-67
2023/01/06 00:29:33;;;;;;;4.18;3.20;;;;;;;9.33;100.00;101869.22;5248586;28;20029;-67
2023/01/06 00:32:04;;;;;;;2.63;2.05;;;;;;;9.34;100.00;101870.84;5247891;28;20531;-67
2023/01/06 00:34:34;;;;;;;2.90;2.70;;;;;;;9.33;100.00;101872.72;5230255;28;20032;-67
2023/01/06 00:37:04;;;;;;;3.67;3.08;;;;;;;9.33;100.00;101867.34;5247940;28;20019;-67
2023/01/06 00:39:35;;;;;;;6.57;3.15;;;;;;;9.31;100.00;101863.22;5248872;28;20032;-67
2023/01/06 00:42:06;;;;;;;2.45;2.35;;;;;;;9.31;100.00;101860.53;5247998;28;20074;-67
2023/01/06 00:44:38;;;;;;;3.13;1.95;;;;;;;9.31;100.00;101861.34;5248060;28;20075;-67
2023/01/06 00:47:10;;;;;;;3.40;3.13;;;;;;;9.14;100.00;101830.66;5248250;28;20107;-67
2023/01/06 00:49:40;;;;;;;4.53;3.08;;;;;;;9.33;100.00;101867.34;5247947;28;20036;-67
2023/01/06 00:52:11;;;;;;;7.55;3.42;;;;;;;9.34;100.00;101870.84;5247308;28;20028;-67
2023/01/06 00:54:42;;;;;;;2.47;2.20;;;;;;;9.33;100.00;101861.94;5247834;28;20077;-67
2023/01/06 00:57:12;;;;;;;3.60;2.75;;;;;;;9.33;100.00;101861.13;5247914;28;20056;-67
2023/01/06 00:59:42;;;;;;;3.80;2.83;;;;;;;9.28;100.00;101850.19;5248062;28;20028;-68
2023/01/06 01:02:13;;;;;;;4.45;3.10;;;;;;;9.30;100.00;101854.31;5246984;28;20047;-67
2023/01/06 01:04:43;;;;;;;4.10;2.45;;;;;;;9.31;100.00;101844.34;5247677;28;20035;-67
2023/01/06 01:07:13;;;;;;;5.72;3.33;;;;;;;9.26;100.00;101846.88;5246046;28;20120;-67
2023/01/06 01:09:44;;;;;;;3.95;3.35;;;;;;;9.30;100.00;101838.13;5247820;28;20267;-67
2023/01/06 01:12:15;;;;;;;2.53;2.42;;;;;;;9.23;100.00;101823.94;5246874;28;20044;-67
2023/01/06 01:14:51;;;;;;;4.75;3.00;;;;;;;9.31;100.00;101829.00;5247672;28;20094;-67
2023/01/06 01:17:28;;;;;;;2.15;2.15;;;;;;;9.32;100.00;101832.53;5247745;28;20552;-66
2023/01/06 01:19:59;;;;;;;3.38;2.97;;;;;;;9.33;100.00;101843.06;5247616;28;20035;-66
2023/01/06 01:22:31;;;;;;;3.00;2.80;;;;;;;9.33;100.00;101836.88;5246662;28;20480;-67
2023/01/06 01:25:02;;;;;;;3.03;2.67;;;;;;;9.33;100.00;101831.47;5246416;28;20028;-67
2023/01/06 01:27:33;;;;;;;2.08;1.98;;;;;;;9.29;100.00;101817.63;5247351;28;20020;-67
2023/01/06 01:30:04;;;;;;;4.47;2.92;;;;;;;9.17;100.00;101788.97;5247214;28;20031;-67
2023/01/06 01:32:34;;;;;;;5.30;2.92;;;;;;;9.33;100.00;101826.91;5246804;28;20019;-67
2023/01/06 01:35:05;;;;;;;3.70;3.13;;;;;;;9.33;100.00;101816.13;5246924;28;20465;-67
2023/01/06 01:37:35;;;;;;;2.90;2.60;;;;;;;9.34;100.00;101822.34;5247038;28;20020;-67
2023/01/06 01:40:06;;;;;;;4.80;2.83;;;;;;;9.33;100.00;101823.38;5246798;28;20016;-67
2023/01/06 01:42:37;;;;;;;6.53;3.03;;;;;;;9.34;100.00;101822.34;5246520;28;20036;-67
2023/01/06 01:45:23;;;;;;;3.10;2.15;;;;;;;9.34;100.00;101817.78;5245763;28;20028;-67
2023/01/06 01:48:06;;;;;;;2.88;2.67;;;;;;;9.35;100.00;101821.28;5245599;28;20028;-67
2023/01/06 01:50:43;;;;;;;3.13;2.78;;;;;;;9.34;100.00;101819.66;5246744;28;20158;-67
2023/01/06 01:53:21;;;;;;;2.80;2.60;;;;;;;9.32;100.00;101813.66;5246454;28;20458;-67
2023/01/06 01:55:59;;;;;;;5.50;2.97;;;;;;;9.30;100.00;101819.25;5228949;28;20048;-67
2023/01/06 01:58:35;;;;;;;7.28;4.50;;;;;;;9.29;100.00;101801.44;5228349;28;20040;-67
2023/01/06 02:01:08;;;;;;;7.60;3.33;;;;;;;9.09;100.00;101776.59;5246529;28;20032;-67
2023/01/06 02:03:40;;;;;;;2.60;2.42;;;;;;;9.30;100.00;101813.88;5245864;28;20036;-67
2023/01/06 02:06:20;;;;;;;2.80;2.60;;;;;;;9.30;100.00;101805.78;5246299;28;20024;-67
2023/01/06 02:09:23;;;;;;;2.72;2.63;;;;;;;9.28;100.00;101802.50;5246626;28;20024;-67
2023/01/06 02:11:56;;;;;;;5.90;2.90;;;;;;;9.28;100.00;101802.50;5215028;28;20062;-66
2023/01/06 02:14:27;;;;;;;3.08;2.88;;;;;;;9.29;100.00;101804.13;5245026;28;20507;-67
2023/01/06 02:17:22;;;;;;;7.50;2.95;;;;;;;9.27;100.00;101803.53;5246514;28;20024;-66
2023/01/06 02:20:09;;;;;;;4.13;2.13;;;;;;;9.28;100.00;101797.09;5246334;28;20035;-67
2023/01/06 02:23:18;;;;;;;2.60;2.40;;;;;;;9.30;100.00;101789.63;5245720;28;20039;-66
2023/01/06 02:26:07;;;;;;;3.05;2.92;;;;;;;9.35;100.00;101780.84;5245540;28;20074;-67
2023/01/06 02:28:55;;;;;;;2.83;2.50;;;;;;;9.34;100.00;101773.81;5246371;28;20484;-67
2023/01/06 02:31:44;;;;;;;2.90;2.70;;;;;;;9.34;100.00;101776.50;5246445;28;20472;-67
2023/01/06 02:34:54;;;;;;;2.40;2.40;;;;;;;9.31;100.00;101764.31;5245627;28;20032;-67
2023/01/06 02:38:02;;;;;;;5.03;2.65;;;;;;;9.37;100.00;101757.19;5245661;28;20036;-66
2023/01/06 02:41:06;;;;;;;4.93;2.65;;;;;;;9.37;100.00;101752.63;5233042;28;20064;-66
2023/01/06 02:43:45;;;;;;;9.70;3.58;;;;;;;9.22;100.00;101732.50;5245139;28;20557;-66
2023/01/06 02:46:34;;;;;;;2.70;2.55;;;;;;;9.39;100.00;101758.63;5228003;28;20032;-66
2023/01/06 02:49:41;;;;;;;3.17;3.07;;;;;;;9.42;100.00;101758.16;5246223;28;20024;-66
2023/01/06 02:52:29;;;;;;;3.65;3.35;;;;;;;9.44;100.00;101748.00;5210243;28;20036;-66
2023/01/06 02:55:00;;;;;;;2.92;2.83;;;;;;;9.45;100.00;101741.53;5245817;28;20024;-66
2023/01/06 02:57:54;;;;;;;2.60;2.50;;;;;;;9.45;100.00;101746.94;5246265;28;20127;-65
2023/01/06 03:00:34;;;;;;;2.72;2.53;;;;;;;9.47;100.00;101761.03;5246147;28;20027;-67
2023/01/06 03:03:10;;;;;;;3.15;2.95;;;;;;;9.50;100.00;101753.53;5244906;28;20021;-67
2023/01/06 03:05:44;;;;;;;2.75;2.65;;;;;;;9.46;100.00;101737.81;5245866;28;20508;-67
2023/01/06 03:08:20;;;;;;;2.42;2.22;;;;;;;9.52;100.00;101763.03;5245750;28;20476;-66
2023/01/06 03:10:53;;;;;;;2.55;2.45;;;;;;;9.53;100.00;101761.16;5245635;28;20028;-65
2023/01/06 03:13:26;;;;;;;3.97;2.78;;;;;;;9.52;100.00;101738.78;5227206;28;20028;-66
2023/01/06 03:15:56;;;;;;;4.10;2.78;;;;;;;9.45;100.00;101733.47;5244541;28;20397;-65
2023/01/06 03:18:27;;;;;;;2.80;2.70;;;;;;;9.57;100.00;101765.03;5245523;28;20103;-66
2023/01/06 03:21:01;;;;;;;4.15;3.53;;;;;;;9.56;100.00;101756.13;5245743;28;20032;-66
2023/01/06 03:23:34;;;;;;;2.20;1.80;;;;;;;9.42;100.00;101730.38;5245383;28;20028;-66
2023/01/06 03:26:05;;;;;;;4.50;2.95;;;;;;;9.57;100.00;101740.75;5227870;28;20024;-66
2023/01/06 03:28:36;;;;;;;5.40;4.05;;;;;;;9.56;100.00;101739.94;5245615;28;20104;-66
2023/01/06 03:31:20;;;;;;;2.70;2.50;;;;;;;9.34;100.00;101707.25;5245744;28;20027;-66
2023/01/06 03:34:33;;;;;;;5.88;3.00;;;;;;;9.53;100.00;101734.19;5245063;28;20396;-66
2023/01/06 03:37:36;;;;;;;3.28;2.72;;;;;;;9.50;100.00;101718.47;5245972;28;20021;-65
2023/01/06 03:40:09;;;;;;;2.60;2.50;;;;;;;9.52;100.00;101732.56;5245507;28;20028;-66
2023/01/06 03:43:14;;;;;;;2.35;2.25;;;;;;;9.53;100.00;101745.00;5255010;22;20071;-66
2023/01/06 03:46:00;;;;;;;2.72;2.53;;;;;;;9.54;100.00;101730.44;5224140;28;20036;-65
2023/01/06 03:49:06;;;;;;;8.95;3.22;;;;;;;9.56;100.00;101723.75;5227363;28;20028;-65
2023/01/06 03:51:48;;;;;;;12.13;2.67;;;;;;;9.45;100.00;101693.03;5210606;28;20513;-68
2023/01/06 03:54:39;;;;;;;3.88;2.88;;;;;;;9.58;100.00;101699.25;5228191;28;20024;-66
2023/01/06 03:57:24;;;;;;;3.38;2.63;;;;;;;9.56;100.00;101712.16;5228511;28;20021;-66
2023/01/06 04:00:03;;;;;;;2.88;2.78;;;;;;;9.51;100.00;101688.59;5228672;28;20504;-65
2023/01/06 04:02:36;;;;;;;1.95;1.95;;;;;;;9.54;100.00;101700.75;5219962;28;20099;-65
2023/01/06 04:05:14;;;;;;;2.63;2.53;;;;;;;9.53;100.00;101691.84;5185937;28;20037;-65
2023/01/06 04:07:45;;;;;;;2.13;2.05;;;;;;;9.54;100.00;101693.50;5187166;28;20049;-66
2023/01/06 04:10:18;;;;;;;4.35;2.65;;;;;;;9.53;100.00;101691.06;5187088;28;20025;-66
2023/01/06 04:12:49;;;;;;;4.28;2.72;;;;;;;9.39;100.00;101668.84;5186326;28;20112;-67
2023/01/06 04:15:22;;;;;;;2.83;2.67;;;;;;;9.51;100.00;101693.16;5187012;28;20402;-66
2023/01/06 04:17:52;;;;;;;2.22;2.20;;;;;;;9.48;100.00;101681.78;5169216;28;20029;-66
2023/01/06 04:20:26;;;;;;;2.72;2.47;;;;;;;9.40;100.00;101679.41;5187391;28;20109;-65
2023/01/06 04:22:57;;;;;;;3.15;2.90;;;;;;;9.46;100.00;101691.97;5186262;28;20021;-65
2023/01/06 04:25:28;;;;;;;2.90;2.58;;;;;;;9.47;100.00;101685.53;5186650;28;20490;-65
2023/01/06 04:27:58;;;;;;;2.80;2.60;;;;;;;9.48;100.00;101679.09;5186943;28;20024;-66
2023/01/06 04:30:28;;;;;;;2.85;2.47;;;;;;;9.47;100.00;101687.41;5186566;28;20038;-65
2023/01/06 04:32:59;;;;;;;2.65;2.45;;;;;;;9.10;100.00;101613.88;5168410;28;20104;-66
2023/01/06 04:35:29;;;;;;;3.30;3.05;;;;;;;9.30;100.00;101637.84;5186362;28;20052;-65
2023/01/06 04:38:01;;;;;;;1.88;1.80;;;;;;;9.47;100.00;101666.66;5186691;28;20021;-65
2023/01/06 04:40:32;;;;;;;2.30;2.10;;;;;;;9.47;100.00;101665.84;5186427;28;20026;-63
2023/01/06 04:43:05;;;;;;;2.47;2.45;;;;;;;9.46;100.00;101665.00;5185668;28;20028;-66
2023/01/06 04:45:38;;;;;;;3.83;2.83;;;;;;;9.45;100.00;101666.06;5186632;28;20033;-65
2023/01/06 04:48:12;;;;;;;3.30;2.85;;;;;;;9.45;100.00;101649.88;5186305;28;20042;-65
2023/01/06 04:50:42;;;;;;;5.10;2.60;;;;;;;9.43;100.00;101648.47;5186855;28;20018;-66
2023/01/06 04:53:13;;;;;;;2.08;1.98;;;;;;;9.44;100.00;101652.81;5185618;28;20041;-63
2023/01/06 04:55:43;;;;;;;4.53;2.70;;;;;;;9.41;100.00;101651.38;5186281;28;20112;-65
2023/01/06 04:58:13;;;;;;;3.65;2.42;;;;;;;9.41;100.00;101647.88;5185523;28;20091;-64
2023/01/06 05:00:44;;;;;;;2.92;2.70;;;;;;;9.41;100.00;101646.00;5185614;28;20032;-64
2023/01/06 05:03:14;;;;;;;2.65;2.55;;;;;;;9.35;100.00;101635.31;5185538;28;20097;-64
2023/01/06 05:05:44;;;;;;;2.60;2.50;;;;;;;9.39;100.00;101645.41;5185790;28;20029;-66
2023/01/06 05:08:15;;;;;;;2.20;2.10;;;;;;;9.39;100.00;101636.50;5186144;28;20110;-65
2023/01/06 05:10:45;;;;;;;3.42;2.00;;;;;;;9.39;100.00;101648.09;5185791;28;20029;-65
2023/01/06 05:13:16;;;;;;;2.38;2.17;;;;;;;9.37;100.00;101647.50;5185387;28;20025;-65
2023/01/06 05:15:46;;;;;;;2.35;2.28;;;;;;;9.37;100.00;101647.50;5168162;28;20470;-65
2023/01/06 05:18:16;;;;;;;3.35;2.53;;;;;;;9.37;100.00;101647.50;5185453;28;20079;-64
2023/01/06 05:20:53;;;;;;;2.00;2.00;;;;;;;9.35;100.00;101646.91;5186176;28;20022;-65
2023/01/06 05:23:24;;;;;;;2.80;2.55;;;;;;;9.38;100.00;101640.25;5186115;28;20029;-65
2023/01/06 05:25:54;;;;;;;2.40;2.30;;;;;;;9.30;100.00;101633.28;5185570;28;20036;-64
2023/01/06 05:28:25;;;;;;;4.78;2.22;;;;;;;9.43;100.00;101648.47;5185478;28;20041;-64
2023/01/06 05:30:59;;;;;;;2.05;2.05;;;;;;;9.45;100.00;101651.75;5185294;28;20076;-65
2023/01/06 05:33:32;;;;;;;2.70;2.50;;;;;;;9.46;100.00;101651.53;5185119;28;20026;-66
2023/01/06 05:36:11;;;;;;;2.00;2.00;;;;;;;9.46;100.00;101650.69;5185321;28;20032;-66
2023/01/06 05:38:41;;;;;;;2.53;2.43;;;;;;;9.48;100.00;101654.00;5185374;28;20036;-65
2023/01/06 05:41:12;;;;;;;2.60;2.50;;;;;;;9.46;100.00;101654.22;5199517;28;20033;-65
2023/01/06 05:43:42;;;;;;;5.20;2.90;;;;;;;9.31;100.00;101628.72;5205081;28;20037;-67
2023/01/06 05:46:13;;;;;;;2.53;2.42;;;;;;;9.31;100.00;101612.53;5204643;28;20033;-64
2023/01/06 05:48:43;;;;;;;3.22;3.03;;;;;;;9.44;100.00;101639.31;5204722;28;20025;-64
2023/01/06 05:51:14;;;;;;;2.45;2.35;;;;;;;9.40;100.00;101633.56;5205019;28;20131;-66
2023/01/06 05:53:47;;;;;;;2.78;2.63;;;;;;;9.41;100.00;101653.25;5203614;28;20036;-67
2023/01/06 05:56:19;;;;;;;2.63;2.53;;;;;;;9.38;100.00;101641.06;5204420;28;20021;-66
2023/01/06 05:58:51;;;;;;;7.13;2.38;;;;;;;9.37;100.00;101634.03;5186610;28;20025;-65
2023/01/06 06:01:25;;;;;;;2.50;2.40;;;;;;;9.40;100.00;101635.44;5205191;28;20029;-64
2023/01/06 06:03:55;;;;;;;2.65;2.45;;;;;;;9.39;100.00;101631.91;5204811;28;20063;-64
2023/01/06 06:06:28;;;;;;;2.65;2.45;;;;;;;9.37;100.00;101623.25;5205355;28;20022;-65
2023/01/06 06:08:59;;;;;;;2.22;2.13;;;;;;;9.38;100.00;101624.88;5192332;28;20029;-64
2023/01/06 06:11:29;;;;;;;2.38;2.28;;;;;;;9.39;100.00;101625.72;5203256;28;20028;-67
2023/01/06 06:13:59;;;;;;;2.35;2.22;;;;;;;9.39;100.00;101633.78;5204424;28;20091;-65
2023/01/06 06:16:30;;;;;;;2.58;2.47;;;;;;;9.40;100.00;101633.56;5186040;28;20022;-65
2023/01/06 06:19:00;;;;;;;2.50;2.17;;;;;;;9.28;100.00;101632.69;5185748;28;20025;-63
2023/01/06 06:21:31;;;;;;;8.95;2.70;;;;;;;9.41;100.00;101646.00;5203205;28;20021;-64
2023/01/06 06:24:01;;;;;;;2.63;2.53;;;;;;;9.45;100.00;101644.50;5185498;28;20147;-63
2023/01/06 06:26:31;;;;;;;2.67;2.50;;;;;;;9.09;100.00;101583.41;5203786;28;20488;-64
2023/01/06 06:29:04;;;;;;;2.33;2.13;;;;;;;9.45;100.00;101654.44;5203606;28;20052;-63
2023/01/06 06:31:35;;;;;;;3.30;3.13;;;;;;;9.47;100.00;101638.88;5203545;28;20057;-66
2023/01/06 06:34:05;;;;;;;5.35;2.42;;;;;;;9.48;100.00;101646.72;5202737;28;20072;-64
2023/01/06 06:36:36;;;;;;;1.88;1.88;;;;;;;9.47;100.00;101655.88;5203143;28;20190;-64
2023/01/06 06:39:06;;;;;;;2.20;2.10;;;;;;;9.51;100.00;101642.75;5203235;28;20033;-65
2023/01/06 06:41:36;;;;;;;2.25;2.10;;;;;;;9.51;100.00;101636.53;5202963;28;20031;-64
2023/01/06 06:44:07;;;;;;;3.63;3.33;;;;;;;9.54;100.00;101650.34;5202648;28;20033;-66
2023/01/06 06:46:37;;;;;;;2.45;2.25;;;;;;;9.48;100.00;101646.72;5203687;28;20017;-66
2023/01/06 06:49:08;;;;;;;2.47;2.38;;;;;;;9.47;100.00;101642.38;5215496;28;20522;-65
2023/01/06 06:51:38;;;;;;;3.70;2.35;;;;;;;9.63;100.00;101656.25;5224374;28;20021;-64
2023/01/06 06:54:08;;;;;;;2.78;2.67;;;;;;;9.66;100.00;101664.72;5223291;28;20083;-64
2023/01/06 06:56:39;;;;;;;6.60;2.22;;;;;;;9.69;100.00;101642.69;5223740;28;20071;-64
2023/01/06 06:59:09;;;;;;;2.20;2.20;;;;;;;9.72;100.00;101661.09;5225159;28;20072;-63
2023/01/06 07:01:40;;;;;;;1.98;1.95;;;;;;;9.76;100.00;101664.16;5223628;28;20424;-63
2023/01/06 07:04:10;;;;;;;8.63;2.40;;;;;;;9.80;100.00;101666.16;5187537;28;20038;-65
2023/01/06 07:06:40;;;;;;;2.97;2.88;;;;;;;9.43;100.00;101600.75;5182570;28;20065;-63
2023/01/06 07:09:11;;;;;;;2.30;2.20;;;;;;;9.81;100.00;101657.03;5181948;28;20025;-63
2023/01/06 07:11:41;;;;;;;2.40;2.30;;;;;;;9.78;100.00;101667.44;5214340;28;20120;-64
2023/01/06 07:14:11;;;;;;;2.45;2.35;;;;;;;9.77;100.00;101673.91;5222969;28;20309;-64
2023/01/06 07:16:42;;;;;;;2.20;2.10;;;;;;;9.78;100.00;101670.16;5223466;28;20066;-63
2023/01/06 07:19:12;;;;;;;5.05;1.77;;;;;;;9.77;100.00;101679.28;5223974;28;20024;-62
2023/01/06 07:21:43;;;;;;;2.47;2.08;;;;;;;9.72;100.00;101677.28;5224651;28;20085;-66
2023/01/06 07:24:13;;;;;;;2.80;2.70;;;;;;;9.51;100.00;101661.63;5227323;28;20162;-65
2023/01/06 07:26:43;;;;;;;1.77;1.77;;;;;;;9.66;100.00;101683.59;5227935;28;20033;-64
2023/01/06 07:29:14;;;;;;;2.47;2.38;;;;;;;9.63;100.00;101686.75;5227667;28;20025;-63
2023/01/06 07:31:44;;;;;;;2.67;2.58;;;;;;;9.66;100.00;101675.50;5228736;28;20029;-66
2023/01/06 07:34:14;;;;;;;2.42;2.33;;;;;;;9.65;100.00;101691.91;5228885;28;20033;-63
2023/01/06 07:36:45;;;;;;;2.63;2.53;;;;;;;9.63;100.00;101702.94;5228952;28;20484;-63
2023/01/06 07:39:15;;;;;;;2.67;2.58;;;;;;;9.60;100.00;101697.16;5228678;28;20426;-63
2023/01/06 07:41:46;;;;;;;2.38;2.28;;;;;;;9.61;100.00;101699.63;5228246;28;20021;-66
2023/01/06 07:44:16;;;;;;;2.67;2.58;;;;;;;9.61;100.00;101706.91;5228029;28;20400;-68
2023/01/06 07:46:46;;;;;;;1.38;1.38;;;;;;;9.60;100.00;101711.47;5228131;28;20032;-64
2023/01/06 07:49:17;;;;;;;2.58;2.47;;;;;;;9.43;100.00;101697.00;5228006;28;20031;-64
2023/01/06 07:51:47;;;;;;;2.22;2.13;;;;;;;9.62;100.00;101727.41;5226721;28;20043;-65
2023/01/06 07:54:17;;;;;;;2.80;2.60;;;;;;;9.54;100.00;101725.84;5227386;28;20473;-65
2023/01/06 07:56:48;;;;;;;2.75;2.53;;;;;;;9.51;100.00;101736.31;5228096;28;20098;-64
2023/01/06 07:59:18;;;;;;;2.50;2.22;;;;;;;9.47;100.00;101734.06;5228343;28;20025;-63
2023/01/06 08:01:49;;;;;;;2.72;2.63;;;;;;;9.41;100.00;101739.53;5215409;28;20033;-63
2023/01/06 08:04:19;;;;;;;2.40;2.30;;;;;;;9.33;100.00;101740.66;5207280;28;20477;-65
2023/01/06 08:06:49;;;;;;;2.53;2.42;;;;;;;9.23;100.00;101735.00;5202648;28;20096;-63
2023/01/06 08:09:20;;;;;;;3.13;2.92;;;;;;;9.24;100.00;101738.50;5194438;28;20040;-64
2023/01/06 08:11:50;;;;;;;2.88;2.78;;;;;;;9.21;100.00;101742.47;5206811;28;20096;-64
2023/01/06 08:14:20;;;;;;;2.75;2.65;;;;;;;9.20;100.00;101740.00;5206667;28;20120;-64
2023/01/06 08:16:51;;;;;;;2.42;2.33;;;;;;;9.19;100.00;101755.34;5206510;28;20022;-64
2023/01/06 08:19:21;;;;;;;4.00;3.15;;;;;;;9.02;100.00;101733.53;5206821;28;20033;-64
2023/01/06 08:21:51;;;;;;;2.92;2.83;;;;;;;9.21;100.00;101766.72;5206566;28;20018;-65
2023/01/06 08:26:56;;;;;;;4.95;2.75;;;;;;;9.22;100.00;101770.25;5217437;28;20385;-64
2023/01/06 08:29:27;;;;;;;2.47;2.33;;;;;;;9.23;100.00;101761.94;5211570;28;20029;-65
2023/01/06 08:31:57;;;;;;;2.30;2.20;;;;;;;9.25;100.00;101775.97;5208269;28;20100;-65
2023/01/06 08:37:00;;;;;;;2.28;2.22;;;;;;;9.31;100.00;101767.00;5237069;28;20053;-81
2023/01/06 08:39:31;;;;;;;2.97;2.78;;;;;;;9.34;100.00;101780.03;5205637;28;20475;-83
2023/01/06 08:42:01;;;;;;;2.38;2.28;;;;;;;9.35;100.00;101794.34;5201665;28;20025;-85
2023/01/06 08:44:32;;;;;;;2.85;2.75;;;;;;;9.15;100.00;101762.22;5224725;28;20032;-85
2023/01/06 08:47:02;;;;;;;2.83;2.72;;;;;;;9.46;100.00;101789.03;5239276;28;20031;-85
2023/01/06 08:49:33;;;;;;;3.33;3.20;;;;;;;9.53;100.00;101794.31;5245366;28;20041;-83
2023/01/06 08:52:04;;;;;;;8.90;3.35;;;;;;;9.58;100.00;101788.25;5241293;28;20226;-84
2023/01/06 08:54:34;;;;;;;3.05;2.95;;;;;;;9.36;100.00;101764.47;5259947;28;20017;-86
2023/01/06 08:57:07;;;;;;;2.97;2.85;;;;;;;9.39;100.00;101773.97;5259511;28;20021;-87
2023/01/06 08:59:37;;;;;;;3.40;3.30;;;;;;;9.61;100.00;101802.09;5260550;28;20024;-85
2023/01/06 09:02:11;;;;;;;4.07;3.88;;;;;;;9.66;100.00;101799.56;5242358;28;20115;-83
2023/01/06 09:04:41;;;;;;;14.02;4.25;;;;;;;9.57;100.00;101778.50;5241729;28;20032;-86
2023/01/06 09:07:12;;;;;;;3.20;3.10;;;;;;;9.69;100.00;101807.19;5238006;28;20035;-86
2023/01/06 09:09:42;;;;;;;3.75;3.60;;;;;;;9.24;100.00;101742.00;5239041;28;20543;-84
2023/01/06 09:12:13;;;;;;;2.70;2.60;;;;;;;9.70;100.00;101806.16;5254266;28;20013;-85
2023/01/06 09:14:43;;;;;;;4.15;3.85;;;;;;;9.55;100.00;101792.22;5239055;28;20024;-87
2023/01/06 09:17:14;;;;;;;3.35;3.22;;;;;;;9.80;100.00;101825.31;5248930;28;20021;-87
2023/01/06 09:19:47;;;;;;;3.75;3.50;;;;;;;9.87;100.00;101816.28;5242840;28;20124;-86
2023/01/06 09:22:18;;;;;;;3.78;3.55;;;;;;;9.87;100.00;101802.81;5261762;28;20032;-86
2023/01/06 09:24:48;;;;;;;3.55;3.35;;;;;;;9.86;100.00;101810.09;5243772;28;20025;-86
2023/01/06 09:27:19;;;;;;;4.15;3.85;;;;;;;9.89;100.00;101817.72;5261364;28;20028;-86
2023/01/06 09:29:49;;;;;;;3.33;3.20;;;;;;;9.60;100.00;101781.59;5244050;28;20397;-84
2023/01/06 09:32:20;;;;;;;4.07;3.78;;;;;;;9.74;100.00;101825.41;5260308;28;20025;-82
2023/01/06 09:34:50;;;;;;;4.25;4.00;;;;;;;9.66;100.00;101807.66;5242803;28;20068;-85
2023/01/06 09:37:20;;;;;;;4.28;3.25;;;;;;;9.69;100.00;101793.72;5243479;28;20074;-86
2023/01/06 09:39:51;;;;;;;3.50;3.40;;;;;;;9.78;100.00;101816.63;5259156;28;20028;-85
2023/01/06 09:47:59;;;;;;;2.92;2.83;;;;;;;10.23;100.00;101840.53;5244596;28;20044;-67
2023/01/06 09:50:36;;;;;;;3.85;3.75;;;;;;;10.31;100.00;101847.50;5229640;28;20024;-69
2023/01/06 09:53:09;;;;;;;3.90;3.70;;;;;;;10.40;100.00;101854.19;5225230;28;20044;-68
2023/01/06 09:55:44;;;;;;;3.90;3.38;;;;;;;10.44;100.00;101849.97;5225147;28;20550;-70
2023/01/06 09:58:17;;;;;;;3.28;3.08;;;;;;;10.56;100.00;101853.53;5225346;28;20024;-70
2023/01/06 10:00:51;;;;;;;6.28;3.45;;;;;;;10.75;100.00;101848.88;5225216;28;20036;-70
2023/01/06 10:03:24;;;;;;;2.97;2.78;;;;;;;10.88;100.00;101839.75;5206618;28;20017;-70
2023/01/06 10:05:59;;;;;;;3.97;3.67;;;;;;;10.94;100.00;101845.03;5225164;28;20044;-66
2023/01/06 10:08:49;;;;;;;4.63;3.47;;;;;;;10.99;100.00;101841.59;5224872;28;20032;-69
2023/01/06 10:11:42;;;;;;;3.50;3.30;;;;;;;10.99;100.00;101814.56;5224532;28;20412;-69
2023/01/06 10:14:21;;;;;;;2.70;2.60;;;;;;;11.30;100.00;101840.41;5225270;28;20112;-69
2023/01/06 10:16:54;;;;;;;3.03;2.93;;;;;;;11.42;100.00;101850.19;5245659;28;20029;-70
2023/01/06 10:19:48;;;;;;;3.72;3.50;;;;;;;11.53;100.00;101842.28;5245540;28;20480;-69
2023/01/06 10:22:31;;;;;;;3.10;2.97;;;;;;;11.50;100.00;101849.00;5244410;28;20021;-70
2023/01/06 10:25:58;;;;;;;3.28;3.05;;;;;;;11.40;100.00;101848.75;5242954;28;20090;-72
2023/01/06 10:28:33;;;;;;;5.65;4.20;;;;;;;11.31;100.00;101851.00;5180851;28;20088;-67
2023/01/06 10:31:07;;;;;;;3.75;3.03;;;;;;;11.28;100.00;101847.94;5181209;28;20041;-70
2023/01/06 10:33:46;;;;;;;3.78;3.58;;;;;;;11.26;100.00;101850.09;5226320;28;20207;-70
2023/01/06 10:36:25;;;;;;;3.83;3.63;;;;;;;11.18;100.00;101832.34;5245464;28;20028;-68
2023/01/06 10:38:56;;;;;;;3.87;3.67;;;;;;;11.29;100.00;101847.72;5245030;28;20062;-71
2023/01/06 10:41:43;;;;;;;4.90;4.53;;;;;;;11.36;100.00;101843.00;5245105;28;20463;-68
2023/01/06 10:44:13;;;;;;;3.20;3.10;;;;;;;11.40;100.00;101833.34;5244616;28;20036;-69
2023/01/06 10:46:46;;;;;;;3.50;3.20;;;;;;;11.35;100.00;101846.75;5227065;28;20028;-69
2023/01/06 10:49:18;;;;;;;4.15;3.80;;;;;;;11.08;100.00;101823.97;5226792;28;20062;-69
2023/01/06 10:51:56;;;;;;;3.25;3.05;;;;;;;11.09;100.00;101833.75;5244872;28;20100;-69
2023/01/06 10:54:33;;;;;;;4.20;3.90;;;;;;;11.13;100.00;101833.03;5246375;28;20026;-70
2023/01/06 10:57:09;;;;;;;3.40;3.13;;;;;;;11.13;100.00;101837.63;5245165;28;20085;-69
2023/01/06 11:00:10;;;;;;;3.40;3.10;;;;;;;11.21;100.00;101831.88;5226757;28;20028;-69
2023/01/06 11:02:46;;;;;;;4.18;3.95;;;;;;;11.12;100.00;101830.56;5244538;28;20027;-71
2023/01/06 11:05:21;;;;;;;6.13;4.25;;;;;;;11.12;100.00;101827.88;5245171;28;20021;-70
2023/01/06 11:07:56;;;;;;;6.10;4.50;;;;;;;11.15;100.00;101833.63;5245003;28;20027;-70
2023/01/06 11:10:30;;;;;;;3.50;3.22;;;;;;;11.22;100.00;101835.38;5244669;28;20063;-68
2023/01/06 11:13:02;;;;;;;4.22;3.30;;;;;;;11.23;100.00;101845.16;5244547;28;20070;-69
2023/01/06 11:15:40;;;;;;;3.30;3.10;;;;;;;11.26;100.00;101833.88;5227062;28;20370;-69
2023/01/06 11:18:20;;;;;;;3.35;3.25;;;;;;;11.20;100.00;101815.88;5245712;28;20025;-70
2023/01/06 11:21:03;;;;;;;3.13;3.00;;;;;;;11.28;100.00;101824.44;5244839;28;20079;-70
2023/01/06 11:23:35;;;;;;;4.05;3.85;;;;;;;11.22;100.00;101821.88;5244146;28;20082;-70
2023/01/06 11:26:19;;;;;;;3.63;3.33;;;;;;;11.24;100.00;101822.47;5245018;28;20523;-69
2023/01/06 11:28:54;;;;;;;4.05;3.85;;;;;;;11.26;100.00;101818.44;5226637;28;20025;-67
2023/01/06 11:31:26;;;;;;;3.40;3.20;;;;;;;11.36;100.00;101818.66;5244787;28;20046;-69
2023/01/06 11:34:02;;;;;;;3.35;3.13;;;;;;;11.50;100.00;101825.47;5243815;28;20480;-71
2023/01/06 11:36:33;;;;;;;4.28;3.88;;;;;;;11.61;100.00;101809.44;5226339;28;20032;-69
2023/01/06 11:39:14;;;;;;;3.28;3.17;;;;;;;11.45;100.00;101795.59;5244368;28;20495;-70
2023/01/06 11:41:46;;;;;;;4.45;3.10;;;;;;;11.58;100.00;101818.03;5243879;28;20029;-67
2023/01/06 11:44:31;;;;;;;2.90;2.80;;;;;;;11.57;100.00;101825.31;5243865;28;20573;-70
2023/01/06 11:47:06;;;;;;;3.88;3.58;;;;;;;11.62;100.00;101813.78;5244041;28;20503;-71
2023/01/06 11:49:42;;;;;;;4.18;3.35;;;;;;;11.66;100.00;101826.59;5243703;28;20029;-69
2023/01/06 11:52:34;;;;;;;3.17;3.00;;;;;;;11.74;100.00;101818.13;5243478;28;20108;-69
2023/01/06 11:55:07;;;;;;;3.85;3.55;;;;;;;11.70;100.00;101821.53;5241102;28;20056;-69
2023/01/06 11:57:56;;;;;;;2.95;2.85;;;;;;;11.65;100.00;101821.41;5225530;28;20035;-69
2023/01/06 12:00:58;;;;;;;2.93;2.83;;;;;;;11.66;100.00;101804.94;5243415;28;20107;-69
2023/01/06 12:03:40;;;;;;;2.45;2.35;;;;;;;11.62;100.00;101800.25;5241297;28;20024;-70
2023/01/06 12:06:13;;;;;;;4.50;3.20;;;;;;;11.61;100.00;101807.56;5243877;28;20035;-68
2023/01/06 12:08:46;;;;;;;3.83;3.63;;;;;;;11.68;100.00;101802.00;5245018;28;20087;-70
2023/01/06 12:11:36;;;;;;;2.88;2.78;;;;;;;11.79;100.00;101806.59;5247537;28;20024;-68